createdAt,value
2022-10-29T00:05:18.521Z,87.81
2022-10-29T00:24:33.413Z,86.66
2022-10-29T00:34:10.880Z,85.02
2022-10-29T00:43:48.286Z,83.16
2022-10-29T00:53:26.016Z,88.93
2022-10-29T01:03:03.116Z,91.01
2022-10-29T01:12:39.889Z,94.04
2022-10-29T01:22:15.476Z,97.19
2022-10-29T01:31:52.021Z,97.94
2022-10-29T01:41:30.354Z,95.66
2022-10-29T01:51:07.315Z,98.53
2022-10-29T02:00:44.254Z,99.78
2022-10-29T02:10:20.832Z,100
2022-10-29T02:19:57.898Z,100
2022-10-29T02:29:34.868Z,100
2022-10-29T02:39:11.930Z,100
2022-10-29T02:48:48.841Z,100
2022-10-29T02:58:25.525Z,100
2022-10-29T03:08:02.691Z,100
2022-10-29T03:17:39.757Z,100
2022-10-29T03:27:17.046Z,100
2022-10-29T03:36:53.812Z,100
2022-10-29T03:46:31.022Z,100
2022-10-29T03:56:08.392Z,100
2022-10-29T04:05:44.922Z,100
2022-10-29T04:15:21.776Z,100
2022-10-29T04:34:35.660Z,100
2022-10-29T04:44:12.448Z,100
2022-10-29T04:53:49.312Z,100
2022-10-29T05:03:26.453Z,100
2022-10-29T05:32:15.461Z,100
2022-10-29T05:41:52.102Z,100
2022-10-29T05:51:29.355Z,100
2022-10-29T06:01:06.219Z,100
2022-10-29T06:20:21.525Z,100
2022-10-29T06:29:59.225Z,100
2022-10-29T06:39:36.647Z,100
2022-10-29T06:58:51.582Z,100
2022-10-29T07:18:08.093Z,100
2022-10-29T07:27:45.879Z,100
2022-10-29T07:37:24.443Z,100
2022-10-29T07:47:02.686Z,98.95
2022-10-29T07:56:42.343Z,97.65
2022-10-29T08:06:18.548Z,96.24
2022-10-29T08:25:34.782Z,93.15
2022-10-29T08:35:13.386Z,90.83
2022-10-29T08:44:51.965Z,88.96
2022-10-29T08:54:31.637Z,84.08
2022-10-29T09:04:08.926Z,82.33
2022-10-29T09:13:47.254Z,80.5
2022-10-29T09:33:04.932Z,77.55
2022-10-29T09:42:43.445Z,73.19
2022-10-29T09:52:21.805Z,71.75
2022-10-29T10:02:00.358Z,69.72
2022-10-29T10:11:37.589Z,71.12
2022-10-29T10:21:14.587Z,70.07
2022-10-29T10:40:31.182Z,71.81
2022-10-29T10:50:08.051Z,70.37
2022-10-29T10:59:47.793Z,69.44
2022-10-29T11:09:53.462Z,61.61
2022-10-29T11:19:30.276Z,62.5
2022-10-29T11:29:09.784Z,62.7
2022-10-29T11:38:40.515Z,62.38
2022-10-29T11:57:52.594Z,61.57
2022-10-29T12:07:30.025Z,63.44
2022-10-29T12:17:07.806Z,62.95
2022-10-29T12:26:46.434Z,62.69
2022-10-29T12:36:26.632Z,61.63
2022-10-29T12:46:19.835Z,60.56
2022-10-29T12:55:40.891Z,59.74
2022-10-29T13:05:17.618Z,61.43
2022-10-29T13:14:53.731Z,62.74
2022-10-29T13:24:30.079Z,62.98
2022-10-29T13:34:07.468Z,65.33
2022-10-29T13:43:53.327Z,62.31
2022-10-29T13:53:29.446Z,61.76
2022-10-29T14:03:12.145Z,60.89
2022-10-29T14:12:48.111Z,59.39
2022-10-29T14:22:20.258Z,58.32
2022-10-29T14:31:53.866Z,60.05
2022-10-29T14:41:26.679Z,63.14
2022-10-29T14:51:02.057Z,65.91
2022-10-29T15:00:38.701Z,66.25
2022-10-29T15:10:14.842Z,70.5
2022-10-29T15:19:50.717Z,76.28
2022-10-29T15:29:32.437Z,77.64
2022-10-29T15:39:02.982Z,79.79
2022-10-29T15:48:39.024Z,80.68
2022-10-29T15:58:15.043Z,82.95
2022-10-29T16:07:51.166Z,85.91
2022-10-29T16:17:27.769Z,88.15
2022-10-29T16:27:04.300Z,90.38
2022-10-29T16:36:43.289Z,91.23
2022-10-29T16:46:18.917Z,92.53
2022-10-29T16:55:55.699Z,93.37
2022-10-29T17:05:32.835Z,93.23
2022-10-29T17:15:09.952Z,93.47
2022-10-29T17:34:23.814Z,93.84
2022-10-29T17:44:00.279Z,94.95
2022-10-29T17:53:37.171Z,94.74
2022-10-29T18:03:14.358Z,93.79
2022-10-29T18:12:51.614Z,89.28
2022-10-29T18:22:29.080Z,89.62
2022-10-29T18:32:06.059Z,90.74
2022-10-29T18:41:43.269Z,89.97
2022-10-29T18:51:20.817Z,90.69
2022-10-29T19:00:57.571Z,90.35
2022-10-29T19:10:35.086Z,90.14
2022-10-29T19:20:14.385Z,88.97
2022-10-29T19:29:49.567Z,88.28
2022-10-29T19:39:27.602Z,87.21
2022-10-29T19:49:04.070Z,87.51
2022-10-29T19:58:40.988Z,86.68
2022-10-29T20:08:17.700Z,88.1
2022-10-29T20:17:54.861Z,87.88
2022-10-29T20:27:31.597Z,90.71
2022-10-29T20:37:08.167Z,92.8
2022-10-29T20:46:45.305Z,91.53
2022-10-29T20:56:22.696Z,92.36
2022-10-29T21:05:59.611Z,92.74
2022-10-29T21:15:37.235Z,89.99
2022-10-29T21:25:14.820Z,90.06
2022-10-29T21:34:52.277Z,90.59
2022-10-29T21:44:29.519Z,91.16
2022-10-29T21:54:06.546Z,91.13
2022-10-29T22:03:43.719Z,92.66
2022-10-29T22:13:20.624Z,94.92
2022-10-29T22:22:58.143Z,94.54
2022-10-29T22:42:11.973Z,96.84
2022-10-29T22:51:48.927Z,97.55
2022-10-29T23:01:25.859Z,97.19
2022-10-29T23:11:03.083Z,98.06
2022-10-29T23:20:40.381Z,98
2022-10-29T23:30:17.745Z,98.49
2022-10-29T23:39:55.040Z,98.61
2022-10-29T23:49:32.487Z,97.48
2022-10-29T23:59:09.550Z,98.98
